Time;durP1;ratioP1;P1;durP2;ratioP2;P2;SDS_P1;SDS_P2;PMS_P1;PMS_P2;Temp;Humidity;BMP_temperature;BMP_pressure;BME280_temperature;BME280_humidity;BME280_pressure;Samples;Min_cycle;Max_cycle;Signal;HPM_P1;HPM_P2
2021/11/13 00:02:26;;;;;;;28.53;6.40;;;11.10;99.90;;;;;;5111381;28;20292;-79
2021/11/13 00:04:53;;;;;;;29.47;5.80;;;11.10;99.90;;;;;;5111483;28;20249;-79
2021/11/13 00:07:21;;;;;;;29.17;6.20;;;11.10;99.90;;;;;;5112081;28;20225;-79
2021/11/13 00:09:48;;;;;;;26.10;6.27;;;11.10;99.90;;;;;;5112378;28;20288;-79
2021/11/13 00:12:15;;;;;;;30.73;6.27;;;11.10;99.90;;;;;;5112276;28;20280;-79
2021/11/13 00:14:45;;;;;;;27.80;6.00;;;11.20;99.90;;;;;;5110834;27;20218;-79
2021/11/13 00:17:13;;;;;;;30.33;5.43;;;11.20;99.90;;;;;;5112057;28;20286;-79
2021/11/13 00:19:40;;;;;;;29.20;5.83;;;11.20;99.90;;;;;;5111865;28;20213;-79
2021/11/13 00:22:07;;;;;;;29.77;6.00;;;11.20;99.90;;;;;;5111603;28;20660;-79
2021/11/13 00:24:36;;;;;;;28.07;5.50;;;11.20;99.90;;;;;;5110996;28;20822;-79
2021/11/13 00:27:03;;;;;;;25.30;6.03;;;11.20;99.90;;;;;;5111897;28;20236;-79
2021/11/13 00:29:30;;;;;;;31.30;5.73;;;11.20;99.90;;;;;;5111578;28;20237;-79
2021/11/13 00:31:57;;;;;;;31.20;6.90;;;11.20;99.90;;;;;;5112027;28;20225;-79
2021/11/13 00:34:24;;;;;;;24.20;6.13;;;11.20;99.90;;;;;;5111078;28;20276;-80
2021/11/13 00:36:52;;;;;;;29.77;6.37;;;11.10;99.90;;;;;;5110851;28;20229;-79
2021/11/13 00:39:20;;;;;;;30.20;6.47;;;11.10;99.90;;;;;;5112150;28;20225;-80
2021/11/13 00:41:48;;;;;;;29.53;7.20;;;11.10;99.90;;;;;;5111231;28;20229;-80
2021/11/13 00:44:15;;;;;;;22.80;7.03;;;11.00;99.90;;;;;;5111881;28;20320;-80
2021/11/13 00:46:42;;;;;;;26.47;6.67;;;10.90;99.90;;;;;;5115133;28;20627;-80
2021/11/13 00:49:10;;;;;;;27.97;6.30;;;10.90;99.90;;;;;;5111464;28;20232;-79
2021/11/13 00:51:38;;;;;;;28.70;6.53;;;10.80;99.90;;;;;;5111747;28;20339;-79
2021/11/13 00:54:06;;;;;;;30.47;7.00;;;10.60;99.90;;;;;;5111645;28;20281;-79
2021/11/13 00:56:33;;;;;;;26.43;6.20;;;10.60;99.90;;;;;;5114878;28;20284;-79
2021/11/13 00:59:01;;;;;;;31.60;7.07;;;10.60;99.90;;;;;;5114848;28;20284;-80
2021/11/13 01:01:28;;;;;;;34.40;7.43;;;10.60;99.90;;;;;;5115278;28;20644;-80
2021/11/13 01:03:57;;;;;;;37.60;7.77;;;10.60;99.90;;;;;;5115163;28;20305;-80
2021/11/13 01:06:24;;;;;;;31.60;7.33;;;10.50;99.90;;;;;;5115474;28;20194;-79
2021/11/13 01:08:52;;;;;;;36.87;6.63;;;10.40;99.90;;;;;;5114752;28;20280;-79
2021/11/13 01:11:19;;;;;;;27.03;6.73;;;10.30;99.90;;;;;;5134240;27;20645;-79
2021/11/13 01:13:47;;;;;;;33.90;6.97;;;10.30;99.90;;;;;;5127989;27;20193;-79
2021/11/13 01:16:16;;;;;;;27.20;6.47;;;10.20;99.90;;;;;;5115790;28;20204;-79
2021/11/13 01:18:44;;;;;;;29.30;6.53;;;10.20;99.90;;;;;;5114962;28;20234;-79
2021/11/13 01:21:12;;;;;;;29.80;6.57;;;10.10;99.90;;;;;;5114942;28;20243;-79
2021/11/13 01:23:39;;;;;;;34.03;7.10;;;10.00;99.90;;;;;;5114485;28;20255;-79
2021/11/13 01:26:06;;;;;;;39.90;6.60;;;10.00;99.90;;;;;;5114438;28;20288;-79
2021/11/13 01:28:33;;;;;;;28.43;7.10;;;9.90;99.90;;;;;;5114998;28;20285;-80
2021/11/13 01:31:00;;;;;;;40.70;6.60;;;10.00;99.90;;;;;;5121511;27;20232;-79
2021/11/13 01:33:28;;;;;;;29.50;6.47;;;10.10;99.90;;;;;;5123616;27;20657;-80
2021/11/13 01:35:55;;;;;;;35.10;6.53;;;10.20;99.90;;;;;;5115875;27;20281;-79
2021/11/13 01:38:22;;;;;;;33.00;6.43;;;10.10;99.90;;;;;;5119860;27;20276;-78
2021/11/13 01:40:49;;;;;;;36.30;7.33;;;10.10;99.90;;;;;;5114166;27;20258;-79
2021/11/13 01:43:16;;;;;;;30.97;6.13;;;10.10;99.90;;;;;;5114262;28;20283;-79
2021/11/13 01:45:43;;;;;;;29.50;6.37;;;10.10;99.90;;;;;;5114322;28;20301;-79
2021/11/13 01:48:10;;;;;;;32.30;5.67;;;10.10;99.90;;;;;;5118927;27;20299;-79
2021/11/13 01:50:41;;;;;;;32.70;6.77;;;10.10;99.90;;;;;;5124708;27;20284;-79
2021/11/13 01:53:09;;;;;;;30.80;6.03;;;10.00;99.90;;;;;;5127452;27;20198;-80
2021/11/13 01:55:37;;;;;;;33.30;5.87;;;10.00;99.90;;;;;;5101307;28;20265;-80
2021/11/13 01:58:05;;;;;;;30.90;5.30;;;10.00;99.90;;;;;;5114542;28;20205;-80
2021/11/13 02:00:34;;;;;;;31.43;5.43;;;10.00;99.90;;;;;;5113957;28;20687;-80
2021/11/13 02:03:02;;;;;;;26.93;5.17;;;9.90;99.90;;;;;;5114500;28;20285;-80
2021/11/13 02:05:30;;;;;;;30.30;5.70;;;9.90;99.90;;;;;;5113907;28;20309;-79
2021/11/13 02:07:58;;;;;;;22.73;4.87;;;9.90;99.90;;;;;;5113613;28;20236;-80
2021/11/13 02:10:26;;;;;;;30.60;5.10;;;9.90;99.90;;;;;;5113850;28;20292;-78
2021/11/13 02:12:53;;;;;;;26.43;5.20;;;9.90;99.90;;;;;;5114200;27;20234;-80
2021/11/13 02:15:21;;;;;;;38.27;5.53;;;9.90;99.90;;;;;;5114151;28;20209;-80
2021/11/13 02:17:48;;;;;;;26.30;5.33;;;9.90;99.90;;;;;;5116355;27;20324;-80
2021/11/13 02:20:28;;;;;;;24.93;5.23;;;10.00;99.90;;;;;;5113472;28;20230;-80
2021/11/13 02:22:57;;;;;;;21.63;5.27;;;10.00;99.90;;;;;;5113651;28;20255;-80
2021/11/13 02:25:27;;;;;;;29.20;5.80;;;9.90;99.90;;;;;;5113571;28;20592;-80
2021/11/13 02:27:55;;;;;;;21.77;5.30;;;9.90;99.90;;;;;;5113356;28;20280;-80
2021/11/13 02:30:23;;;;;;;28.87;5.80;;;9.90;99.90;;;;;;5114044;28;20225;-79
2021/11/13 02:32:52;;;;;;;31.23;6.40;;;10.00;99.90;;;;;;5113703;28;20663;-80
2021/11/13 02:35:21;;;;;;;31.77;6.50;;;10.10;99.90;;;;;;5113646;28;20200;-80
2021/11/13 02:37:49;;;;;;;32.73;6.83;;;10.10;99.90;;;;;;5113135;28;20285;-80
2021/11/13 02:40:17;;;;;;;31.70;5.37;;;10.10;99.90;;;;;;5108946;27;20237;-80
2021/11/13 02:42:46;;;;;;;24.07;5.70;;;10.00;99.90;;;;;;5113310;28;20192;-80
2021/11/13 02:45:14;;;;;;;23.00;5.70;;;10.00;99.90;;;;;;5113583;27;20217;-80
2021/11/13 02:47:43;;;;;;;22.97;4.73;;;9.90;99.90;;;;;;5117216;27;20204;-80
2021/11/13 02:50:12;;;;;;;28.03;5.87;;;10.10;99.90;;;;;;5113063;28;20743;-80
2021/11/13 02:52:45;;;;;;;28.17;5.67;;;10.20;99.90;;;;;;5114198;27;20780;-80
2021/11/13 02:55:12;;;;;;;29.30;5.53;;;10.10;99.90;;;;;;5113183;28;20198;-80
2021/11/13 02:57:40;;;;;;;28.43;5.27;;;10.00;99.90;;;;;;5113173;27;20288;-80
2021/11/13 03:00:10;;;;;;;29.07;5.73;;;9.90;99.90;;;;;;5112949;28;20229;-80
2021/11/13 03:02:37;;;;;;;35.10;5.83;;;9.80;99.90;;;;;;5128994;27;20238;-80
2021/11/13 03:05:06;;;;;;;28.13;5.93;;;9.70;99.90;;;;;;5113001;28;20716;-80
2021/11/13 03:07:33;;;;;;;30.03;5.87;;;9.60;99.90;;;;;;5111523;28;20297;-80
2021/11/13 03:10:01;;;;;;;30.53;6.77;;;9.60;99.90;;;;;;5112937;28;20255;-79
2021/11/13 03:12:28;;;;;;;29.27;7.07;;;9.60;99.90;;;;;;5117159;27;20244;-79
2021/11/13 03:14:55;;;;;;;42.30;7.23;;;9.60;99.90;;;;;;5112903;27;20297;-80
2021/11/13 03:17:22;;;;;;;27.23;5.80;;;9.60;99.90;;;;;;5112184;28;20260;-79
2021/11/13 03:19:49;;;;;;;38.07;6.97;;;9.50;99.90;;;;;;5111384;28;20285;-80
2021/11/13 03:22:15;;;;;;;26.97;6.13;;;9.40;99.90;;;;;;5112632;27;20296;-79
2021/11/13 03:24:43;;;;;;;37.40;6.77;;;9.40;99.90;;;;;;5113189;27;20382;-80
2021/11/13 03:27:12;;;;;;;36.40;6.13;;;9.40;99.90;;;;;;5122087;27;20279;-79
2021/11/13 03:29:45;;;;;;;32.67;5.90;;;9.50;99.90;;;;;;5111939;28;20284;-79
2021/11/13 03:32:12;;;;;;;33.67;6.63;;;9.60;99.90;;;;;;5112721;27;20196;-80
2021/11/13 03:34:39;;;;;;;40.03;7.03;;;9.50;99.90;;;;;;5112451;27;20248;-79
2021/11/13 03:37:07;;;;;;;28.47;5.70;;;9.50;99.90;;;;;;5112631;27;20288;-79
2021/11/13 03:39:33;;;;;;;34.77;6.20;;;9.50;99.90;;;;;;5112197;28;20672;-79
2021/11/13 03:42:00;;;;;;;37.77;5.97;;;9.40;99.90;;;;;;5114016;27;20236;-79
2021/11/13 03:44:29;;;;;;;33.33;6.73;;;9.50;99.90;;;;;;5114277;27;20288;-79
2021/11/13 03:46:55;;;;;;;37.50;6.63;;;9.60;99.90;;;;;;5112614;27;20284;-79
2021/11/13 03:49:22;;;;;;;31.77;6.30;;;9.60;99.90;;;;;;5112132;28;20217;-79
2021/11/13 03:51:50;;;;;;;29.00;6.03;;;9.60;99.90;;;;;;5112355;28;20288;-79
2021/11/13 03:54:17;;;;;;;32.67;5.80;;;9.70;99.90;;;;;;5121222;27;20200;-79
2021/11/13 03:56:44;;;;;;;33.53;6.17;;;9.80;99.90;;;;;;5120018;27;20228;-79
2021/11/13 03:59:11;;;;;;;34.97;6.53;;;9.80;99.90;;;;;;5112303;27;20656;-79
2021/11/13 04:01:39;;;;;;;34.00;6.47;;;9.90;99.90;;;;;;5111744;28;20301;-79
2021/11/13 04:04:06;;;;;;;33.37;6.10;;;10.00;99.90;;;;;;5111216;28;20235;-79
2021/11/13 04:06:33;;;;;;;27.87;5.93;;;10.00;99.90;;;;;;5111666;28;20317;-79
2021/11/13 04:09:00;;;;;;;32.30;5.60;;;10.10;99.90;;;;;;5110847;28;20731;-79
2021/11/13 04:11:27;;;;;;;32.70;6.17;;;10.10;99.90;;;;;;5110618;27;20221;-79
2021/11/13 04:13:53;;;;;;;26.27;5.80;;;10.00;99.90;;;;;;5112027;28;20296;-79
2021/11/13 04:16:20;;;;;;;26.20;5.20;;;10.10;99.90;;;;;;5115423;27;20291;-79
2021/11/13 04:18:51;;;;;;;27.17;5.50;;;10.10;99.90;;;;;;5111611;28;20760;-79
2021/11/13 04:21:18;;;;;;;30.70;6.23;;;10.10;99.90;;;;;;5111556;28;20227;-79
2021/11/13 04:23:45;;;;;;;24.10;6.27;;;10.10;99.90;;;;;;5114049;27;20740;-79
2021/11/13 04:26:12;;;;;;;33.47;7.00;;;10.10;99.90;;;;;;5116111;28;20213;-79
2021/11/13 04:28:39;;;;;;;31.03;6.80;;;10.10;99.90;;;;;;5111488;28;20677;-80
2021/11/13 04:31:06;;;;;;;29.13;5.97;;;10.10;99.90;;;;;;5111554;28;20760;-79
2021/11/13 04:33:34;;;;;;;28.30;6.40;;;10.10;99.90;;;;;;5114034;28;20266;-79
2021/11/13 04:36:06;;;;;;;28.40;6.20;;;10.10;99.90;;;;;;5111580;28;20198;-79
2021/11/13 04:38:35;;;;;;;33.57;5.97;;;10.00;99.90;;;;;;5111287;28;20205;-79
2021/11/13 04:41:04;;;;;;;27.50;6.20;;;9.90;99.90;;;;;;5112262;28;20229;-79
2021/11/13 04:43:31;;;;;;;27.77;6.03;;;9.70;99.90;;;;;;5112037;28;20280;-80
2021/11/13 04:45:58;;;;;;;28.70;6.40;;;9.70;99.90;;;;;;5111819;28;20771;-79
2021/11/13 04:48:25;;;;;;;35.53;6.57;;;9.80;99.90;;;;;;5111244;28;20200;-79
2021/11/13 04:50:52;;;;;;;25.27;5.93;;;9.80;99.90;;;;;;5111618;28;20295;-79
2021/11/13 04:53:20;;;;;;;30.30;5.63;;;9.90;99.90;;;;;;5111813;28;20228;-79
2021/11/13 04:55:47;;;;;;;28.60;6.40;;;9.90;99.90;;;;;;5117338;28;20200;-79
2021/11/13 04:58:14;;;;;;;25.50;6.40;;;10.00;99.90;;;;;;5111595;28;20292;-79
2021/11/13 05:00:42;;;;;;;24.77;5.67;;;10.00;99.90;;;;;;5111030;28;20202;-79
2021/11/13 05:03:08;;;;;;;23.17;5.00;;;9.90;99.90;;;;;;5111106;28;20228;-79
2021/11/13 05:05:35;;;;;;;24.77;5.07;;;9.90;99.90;;;;;;5110556;28;20231;-79
2021/11/13 05:08:02;;;;;;;24.47;5.17;;;9.90;99.90;;;;;;5111518;28;20291;-79
2021/11/13 05:10:31;;;;;;;19.83;4.73;;;10.00;99.90;;;;;;5111102;28;20225;-79
2021/11/13 05:12:59;;;;;;;22.60;4.97;;;9.90;99.90;;;;;;5117155;28;20218;-79
2021/11/13 05:15:26;;;;;;;23.80;5.33;;;9.90;99.90;;;;;;5111633;28;20292;-79
2021/11/13 05:17:53;;;;;;;26.23;4.93;;;9.90;99.90;;;;;;5110150;28;20748;-79
2021/11/13 05:20:20;;;;;;;16.60;4.33;;;10.00;99.90;;;;;;5111389;28;20280;-79
2021/11/13 05:22:49;;;;;;;16.77;4.00;;;10.00;99.90;;;;;;5110477;28;20232;-79
2021/11/13 05:25:19;;;;;;;20.03;4.20;;;10.00;99.90;;;;;;5111230;28;20213;-80
2021/11/13 05:27:47;;;;;;;17.87;4.40;;;10.00;99.90;;;;;;5111296;28;20280;-79
2021/11/13 05:30:16;;;;;;;21.63;4.53;;;10.00;99.90;;;;;;5110835;28;20204;-79
2021/11/13 05:32:43;;;;;;;20.13;4.43;;;10.00;99.90;;;;;;5111368;28;20631;-79
2021/11/13 05:35:11;;;;;;;21.20;4.20;;;10.00;99.90;;;;;;5111007;28;20229;-80
2021/11/13 05:37:39;;;;;;;19.57;4.13;;;10.00;99.90;;;;;;5111260;28;20283;-80
2021/11/13 05:40:08;;;;;;;20.57;4.20;;;10.00;99.90;;;;;;5110285;28;20277;-79
2021/11/13 05:42:36;;;;;;;16.50;3.97;;;10.10;99.90;;;;;;5113321;27;20246;-79
2021/11/13 05:45:07;;;;;;;22.93;3.73;;;10.10;99.90;;;;;;5114105;28;20230;-79
2021/11/13 05:47:34;;;;;;;15.67;4.10;;;10.10;99.90;;;;;;5107991;28;20229;-79
2021/11/13 05:50:01;;;;;;;18.40;3.40;;;10.20;99.90;;;;;;5113895;28;20634;-80
2021/11/13 05:52:28;;;;;;;15.90;3.70;;;10.20;99.90;;;;;;5114332;27;20268;-79
2021/11/13 05:54:55;;;;;;;17.47;3.50;;;10.20;99.90;;;;;;5114013;28;20212;-79
2021/11/13 05:57:22;;;;;;;12.63;3.97;;;10.20;99.90;;;;;;5113881;28;20668;-79
2021/11/13 05:59:49;;;;;;;16.90;3.60;;;10.20;99.90;;;;;;5113913;27;20675;-79
2021/11/13 06:02:17;;;;;;;14.17;2.80;;;10.20;99.90;;;;;;5113903;28;20246;-79
2021/11/13 06:04:44;;;;;;;16.30;3.47;;;10.20;99.90;;;;;;5116527;27;20231;-79
2021/11/13 06:07:11;;;;;;;14.40;3.33;;;10.20;99.90;;;;;;5113810;27;20307;-79
2021/11/13 06:09:38;;;;;;;10.50;2.93;;;10.20;99.90;;;;;;5113999;27;20291;-79
2021/11/13 06:12:05;;;;;;;16.40;3.37;;;10.20;99.90;;;;;;5113762;28;20233;-79
2021/11/13 06:14:32;;;;;;;13.10;3.50;;;10.20;99.90;;;;;;5113375;28;20719;-79
2021/11/13 06:16:59;;;;;;;8.73;2.90;;;10.20;99.90;;;;;;5113843;27;20304;-79
2021/11/13 06:19:27;;;;;;;12.93;3.27;;;10.20;99.90;;;;;;5113662;28;20744;-80
2021/11/13 06:21:54;;;;;;;12.27;3.67;;;10.30;99.90;;;;;;5114377;28;20216;-79
2021/11/13 06:24:21;;;;;;;9.93;3.30;;;10.20;99.90;;;;;;5114272;27;20953;-80
2021/11/13 06:26:48;;;;;;;11.10;3.40;;;10.30;99.90;;;;;;5114288;28;20263;-80
2021/11/13 06:29:15;;;;;;;14.90;3.90;;;10.30;99.90;;;;;;5113943;28;20202;-79
2021/11/13 06:31:42;;;;;;;15.60;3.80;;;10.30;99.90;;;;;;5113099;28;20631;-80
2021/11/13 06:34:09;;;;;;;15.47;3.43;;;10.30;99.90;;;;;;5113855;28;20193;-79
2021/11/13 06:36:37;;;;;;;11.20;3.03;;;10.40;99.90;;;;;;5114105;28;20237;-79
2021/11/13 06:39:05;;;;;;;8.57;3.27;;;10.30;99.90;;;;;;5113708;28;20194;-80
2021/11/13 06:41:32;;;;;;;12.03;3.50;;;10.30;99.90;;;;;;5113321;27;20293;-80
2021/11/13 06:43:59;;;;;;;8.30;3.50;;;10.30;99.90;;;;;;5104123;27;20289;-79
2021/11/13 06:46:26;;;;;;;7.13;3.00;;;10.30;99.90;;;;;;5113449;27;20308;-80
2021/11/13 06:48:53;;;;;;;7.80;2.60;;;10.30;99.90;;;;;;5113631;27;20280;-79
2021/11/13 06:51:20;;;;;;;8.87;3.30;;;10.30;99.90;;;;;;5114072;28;20221;-80
2021/11/13 06:53:49;;;;;;;6.53;2.77;;;10.30;99.90;;;;;;5113524;28;20296;-79
2021/11/13 06:56:16;;;;;;;7.10;2.90;;;10.30;99.90;;;;;;5114023;27;20285;-79
2021/11/13 06:58:43;;;;;;;6.50;2.93;;;10.30;99.90;;;;;;5112921;28;20193;-80
2021/11/13 07:01:10;;;;;;;10.37;3.10;;;10.30;99.90;;;;;;5113482;28;20232;-80
2021/11/13 07:03:37;;;;;;;6.83;2.60;;;10.30;99.90;;;;;;5112924;28;20277;-79
2021/11/13 07:06:04;;;;;;;8.37;2.97;;;10.40;99.90;;;;;;5113293;28;20254;-80
2021/11/13 07:08:31;;;;;;;7.90;3.50;;;10.40;99.90;;;;;;5113185;28;20237;-79
2021/11/13 07:10:59;;;;;;;7.67;3.27;;;10.40;99.90;;;;;;5113040;28;20293;-79
2021/11/13 07:13:27;;;;;;;6.63;3.33;;;10.40;99.90;;;;;;5112638;28;20284;-79
2021/11/13 07:15:54;;;;;;;8.33;3.43;;;10.40;99.90;;;;;;5113047;28;20234;-79
2021/11/13 07:18:21;;;;;;;10.20;3.53;;;10.50;99.90;;;;;;5111926;28;20314;-79
2021/11/13 07:20:53;;;;;;;7.57;3.57;;;10.40;99.90;;;;;;5112857;28;20586;-79
2021/11/13 07:23:21;;;;;;;7.37;3.40;;;10.50;99.90;;;;;;5113514;27;20653;-79
2021/11/13 07:25:48;;;;;;;5.67;3.30;;;10.50;99.90;;;;;;5112718;28;20252;-79
2021/11/13 07:28:18;;;;;;;4.83;2.83;;;10.50;99.90;;;;;;5118482;27;20258;-79
2021/11/13 07:30:48;;;;;;;5.27;3.27;;;10.50;99.90;;;;;;5112468;28;20204;-79
2021/11/13 07:33:15;;;;;;;6.37;4.20;;;10.50;99.90;;;;;;5112731;28;20291;-79
2021/11/13 07:35:44;;;;;;;9.33;4.40;;;10.60;99.90;;;;;;5113253;28;20288;-79
2021/11/13 07:38:12;;;;;;;6.70;3.63;;;10.60;99.90;;;;;;5113281;27;20732;-77
2021/11/13 07:40:39;;;;;;;7.07;3.23;;;10.60;99.90;;;;;;5120047;27;20198;-78
2021/11/13 07:43:06;;;;;;;6.37;3.40;;;10.60;99.90;;;;;;5108185;28;20269;-78
2021/11/13 07:45:34;;;;;;;6.17;3.30;;;10.60;99.90;;;;;;5111396;27;20255;-78
2021/11/13 07:48:01;;;;;;;5.93;2.77;;;10.60;99.90;;;;;;5112824;28;20236;-78
2021/11/13 07:50:28;;;;;;;5.17;2.47;;;10.60;99.90;;;;;;5112938;28;20232;-78
2021/11/13 07:52:55;;;;;;;7.80;2.73;;;10.60;99.90;;;;;;5113080;28;20229;-77
2021/11/13 07:55:23;;;;;;;6.73;3.27;;;10.60;99.90;;;;;;5111877;28;20233;-77
2021/11/13 07:57:50;;;;;;;5.60;3.50;;;10.60;99.90;;;;;;5112132;27;20190;-77
2021/11/13 08:00:20;;;;;;;5.33;3.07;;;10.60;99.90;;;;;;5111094;28;20285;-77
2021/11/13 08:02:48;;;;;;;4.77;3.00;;;10.60;99.90;;;;;;5110860;28;20228;-77
2021/11/13 08:05:16;;;;;;;6.33;3.70;;;10.60;99.90;;;;;;5112066;28;20236;-78
2021/11/13 08:07:44;;;;;;;5.27;3.10;;;10.70;99.90;;;;;;5124026;27;20304;-77
2021/11/13 08:10:12;;;;;;;7.67;3.27;;;10.70;99.90;;;;;;5114886;28;20209;-77
2021/11/13 08:12:40;;;;;;;6.77;3.87;;;10.70;99.90;;;;;;5126906;27;20250;-78
2021/11/13 08:15:09;;;;;;;8.27;4.33;;;10.70;99.90;;;;;;5122519;27;20251;-77
2021/11/13 08:17:36;;;;;;;8.00;4.43;;;10.70;99.90;;;;;;5115903;27;20257;-77
2021/11/13 08:20:05;;;;;;;7.23;4.00;;;10.70;99.90;;;;;;5112531;28;20252;-77
2021/11/13 08:22:34;;;;;;;6.63;3.70;;;10.80;99.90;;;;;;5111030;28;20194;-77
2021/11/13 08:25:01;;;;;;;8.07;4.13;;;10.80;99.90;;;;;;5111871;28;20197;-78
2021/11/13 08:27:28;;;;;;;10.03;4.33;;;10.80;99.90;;;;;;5110416;28;20300;-77
2021/11/13 08:29:55;;;;;;;8.50;4.77;;;10.80;99.90;;;;;;5118744;28;20233;-78
2021/11/13 08:32:22;;;;;;;6.27;4.40;;;10.80;99.90;;;;;;5107817;28;20284;-77
2021/11/13 08:34:48;;;;;;;8.53;4.77;;;10.90;99.90;;;;;;5111805;28;20292;-78
2021/11/13 08:37:17;;;;;;;9.70;4.97;;;10.90;99.90;;;;;;5129730;28;20280;-77
2021/11/13 08:39:44;;;;;;;9.97;4.90;;;10.80;99.90;;;;;;5117536;28;20280;-77
2021/11/13 08:42:13;;;;;;;11.43;5.07;;;10.80;99.90;;;;;;5107011;28;20300;-78
2021/11/13 08:44:42;;;;;;;6.20;3.70;;;10.90;99.90;;;;;;5110416;28;20194;-79
2021/11/13 08:47:09;;;;;;;5.83;4.10;;;10.90;99.90;;;;;;5110287;28;20300;-78
2021/11/13 08:49:37;;;;;;;6.10;3.80;;;10.90;99.90;;;;;;5120281;28;20222;-78
2021/11/13 08:52:05;;;;;;;4.83;3.70;;;10.90;99.90;;;;;;5111225;28;20190;-78
2021/11/13 08:54:34;;;;;;;6.17;4.20;;;11.00;99.90;;;;;;5114823;28;20735;-78
2021/11/13 08:57:02;;;;;;;7.03;3.20;;;11.00;99.90;;;;;;5116606;28;20297;-78
2021/11/13 08:59:29;;;;;;;7.03;3.90;;;11.00;99.90;;;;;;5125272;28;20280;-78
2021/11/13 09:01:57;;;;;;;7.33;4.27;;;11.00;99.90;;;;;;5111629;28;20284;-78
2021/11/13 09:04:25;;;;;;;5.83;4.10;;;11.10;99.90;;;;;;5111410;28;20752;-78
2021/11/13 09:06:51;;;;;;;8.40;4.67;;;11.20;99.90;;;;;;5111393;28;20249;-78
2021/11/13 09:09:18;;;;;;;8.43;4.87;;;11.20;99.90;;;;;;5111891;28;20289;-78
2021/11/13 09:11:47;;;;;;;8.00;4.43;;;11.20;99.90;;;;;;5112171;28;20236;-78
2021/11/13 09:14:17;;;;;;;6.17;4.30;;;11.20;99.90;;;;;;5111521;28;20697;-78
2021/11/13 09:16:44;;;;;;;6.90;4.93;;;11.30;99.90;;;;;;5111719;28;20234;-78
2021/11/13 09:19:11;;;;;;;7.03;4.53;;;11.40;99.90;;;;;;5115664;28;20230;-78
2021/11/13 09:21:39;;;;;;;6.57;4.57;;;11.60;99.90;;;;;;5123519;27;20272;-77
2021/11/13 09:24:06;;;;;;;8.20;4.30;;;11.50;99.90;;;;;;5094873;28;20297;-78
2021/11/13 09:26:34;;;;;;;10.23;5.40;;;11.50;99.90;;;;;;5095230;28;20228;-78
2021/11/13 09:29:02;;;;;;;14.07;6.10;;;11.60;99.90;;;;;;5113412;28;20659;-78
2021/11/13 09:31:29;;;;;;;7.90;5.77;;;11.70;99.90;;;;;;5097269;28;20221;-78
2021/11/13 09:33:56;;;;;;;17.93;7.03;;;11.80;99.90;;;;;;5114598;28;20321;-77
2021/11/13 09:36:23;;;;;;;9.00;5.30;;;12.40;99.90;;;;;;5115171;27;20395;-78
2021/11/13 09:38:50;;;;;;;7.80;4.60;;;12.40;99.90;;;;;;5116437;27;20201;-78
2021/11/13 09:41:19;;;;;;;9.30;5.37;;;12.40;99.90;;;;;;5134344;27;20204;-77
2021/11/13 09:43:46;;;;;;;5.90;4.63;;;12.70;99.90;;;;;;5114821;28;20598;-78
2021/11/13 09:46:15;;;;;;;7.57;5.10;;;12.80;99.90;;;;;;5114742;28;20198;-78
2021/11/13 09:48:42;;;;;;;5.47;4.57;;;12.80;99.90;;;;;;5114740;28;20293;-78
2021/11/13 09:51:13;;;;;;;5.57;3.90;;;12.80;99.90;;;;;;5115260;28;20225;-78
2021/11/13 09:53:40;;;;;;;4.70;3.80;;;12.90;99.90;;;;;;5114781;28;20277;-78
2021/11/13 09:56:10;;;;;;;6.30;4.10;;;13.20;99.90;;;;;;5114475;28;20281;-77
2021/11/13 09:58:37;;;;;;;5.90;3.83;;;13.50;99.90;;;;;;5114653;27;21593;-78
2021/11/13 10:01:04;;;;;;;4.00;3.20;;;13.40;99.90;;;;;;5114387;28;20284;-78
2021/11/13 10:03:33;;;;;;;3.70;3.23;;;13.40;99.90;;;;;;5115851;27;20281;-77
2021/11/13 10:06:01;;;;;;;4.73;3.03;;;13.50;99.90;;;;;;5114218;28;20281;-78
2021/11/13 10:08:29;;;;;;;3.20;2.37;;;13.50;99.90;;;;;;5114656;28;20278;-78
2021/11/13 10:10:59;;;;;;;5.03;1.90;;;13.30;99.90;;;;;;5134349;27;20236;-78
2021/11/13 10:13:31;;;;;;;2.47;1.63;;;13.20;99.90;;;;;;5134245;27;20197;-77
2021/11/13 10:16:00;;;;;;;3.13;1.83;;;13.10;99.90;;;;;;5099500;28;20215;-78
2021/11/13 10:18:28;;;;;;;5.23;2.10;;;13.00;99.90;;;;;;5114261;27;20337;-78
2021/11/13 10:21:09;;;;;;;5.67;2.10;;;13.00;99.90;;;;;;5114771;28;20756;-78
2021/11/13 10:23:40;;;;;;;4.57;2.07;;;13.10;99.90;;;;;;5114031;28;20225;-77
2021/11/13 10:26:10;;;;;;;5.23;1.80;;;13.10;99.90;;;;;;5115407;28;20229;-78
2021/11/13 10:28:49;;;;;;;4.87;2.27;;;13.10;99.90;;;;;;5113844;28;20217;-79
2021/11/13 10:31:18;;;;;;;9.23;2.57;;;13.10;99.90;;;;;;5114588;28;20248;-79
2021/11/13 10:33:46;;;;;;;4.80;1.83;;;13.30;99.90;;;;;;5098072;27;20193;-78
2021/11/13 10:36:19;;;;;;;5.80;2.00;;;13.60;99.90;;;;;;5113178;28;20202;-79
2021/11/13 10:38:49;;;;;;;5.40;1.70;;;13.70;99.90;;;;;;5113664;28;20209;-80
2021/11/13 10:41:16;;;;;;;4.77;1.40;;;13.70;99.90;;;;;;5117636;27;20194;-79
2021/11/13 10:43:46;;;;;;;3.83;1.30;;;13.60;99.90;;;;;;5113964;27;20198;-80
2021/11/13 10:46:15;;;;;;;4.67;1.57;;;13.70;99.90;;;;;;5114180;28;20289;-80
2021/11/13 10:48:46;;;;;;;3.17;1.20;;;13.80;99.90;;;;;;5113334;28;20252;-79
2021/11/13 10:51:18;;;;;;;2.87;1.40;;;14.30;99.90;;;;;;5113593;28;20237;-79
2021/11/13 10:53:46;;;;;;;5.93;1.80;;;14.70;99.90;;;;;;5113849;28;20272;-79
2021/11/13 10:56:15;;;;;;;4.27;1.33;;;15.00;99.90;;;;;;5114098;28;20267;-79
2021/11/13 10:58:53;;;;;;;5.47;1.23;;;14.90;99.90;;;;;;5113231;28;20225;-79
2021/11/13 11:01:31;;;;;;;4.13;1.30;;;14.80;99.90;;;;;;5113609;28;20221;-79
2021/11/13 11:04:07;;;;;;;5.20;2.10;;;14.60;99.90;;;;;;5128917;27;20284;-79
2021/11/13 11:06:41;;;;;;;6.03;2.53;;;14.40;99.90;;;;;;5121727;27;20633;-79
2021/11/13 11:09:20;;;;;;;7.07;2.50;;;14.50;99.90;;;;;;5114247;27;20650;-80
2021/11/13 11:11:48;;;;;;;7.37;2.43;;;14.30;99.90;;;;;;5113143;28;20284;-80
2021/11/13 11:14:17;;;;;;;5.27;1.60;;;14.10;99.90;;;;;;5112581;28;20308;-79
2021/11/13 11:16:47;;;;;;;7.63;2.33;;;13.80;99.90;;;;;;5112830;28;20871;-78
2021/11/13 11:19:17;;;;;;;5.40;2.00;;;13.50;99.90;;;;;;5113038;28;20713;-79
2021/11/13 11:21:48;;;;;;;3.97;1.70;;;13.40;99.90;;;;;;5112418;28;20193;-79
2021/11/13 11:24:17;;;;;;;6.93;2.30;;;13.50;99.90;;;;;;5113330;27;20608;-79
2021/11/13 11:26:46;;;;;;;6.70;2.30;;;13.60;99.90;;;;;;5112413;28;20708;-78
2021/11/13 11:29:14;;;;;;;7.27;2.23;;;14.00;99.90;;;;;;5112967;28;20284;-79
2021/11/13 11:31:43;;;;;;;5.90;1.90;;;14.70;99.90;;;;;;5113071;28;20229;-79
2021/11/13 11:34:28;;;;;;;5.23;2.17;;;14.60;99.90;;;;;;5113005;28;20285;-79
2021/11/13 11:36:58;;;;;;;6.90;2.60;;;14.50;99.90;;;;;;5112483;27;20205;-79
2021/11/13 11:39:26;;;;;;;6.47;1.90;;;14.40;99.90;;;;;;5112634;28;20596;-79
2021/11/13 11:41:54;;;;;;;5.10;1.60;;;14.50;99.90;;;;;;5112145;28;20229;-79
2021/11/13 11:44:21;;;;;;;8.17;1.43;;;14.60;99.90;;;;;;5112584;28;20233;-79
2021/11/13 11:46:48;;;;;;;3.83;1.20;;;14.50;99.90;;;;;;5112261;28;20765;-79
2021/11/13 11:49:16;;;;;;;4.77;1.20;;;14.40;99.90;;;;;;5111734;28;20205;-79
2021/11/13 11:51:45;;;;;;;5.47;1.30;;;14.60;99.90;;;;;;5112802;28;20229;-79
2021/11/13 11:54:15;;;;;;;6.03;1.40;;;14.50;99.90;;;;;;5112665;28;20297;-79
2021/11/13 11:56:42;;;;;;;4.73;1.23;;;14.60;99.90;;;;;;5112892;28;20286;-80
2021/11/13 11:59:09;;;;;;;8.70;1.57;;;15.00;99.90;;;;;;5112135;28;20229;-79
2021/11/13 12:01:39;;;;;;;5.93;1.23;;;15.10;99.90;;;;;;5112622;28;20233;-79
2021/11/13 12:04:14;;;;;;;3.40;1.10;;;15.20;99.90;;;;;;5111990;28;20635;-79
2021/11/13 12:06:44;;;;;;;5.23;1.23;;;15.40;99.90;;;;;;5127925;27;20207;-79
2021/11/13 12:09:12;;;;;;;8.70;1.40;;;15.20;99.90;;;;;;5106160;27;20304;-79
2021/11/13 12:11:39;;;;;;;4.77;1.37;;;15.00;99.90;;;;;;5129832;27;20277;-79
2021/11/13 12:14:29;;;;;;;2.83;1.10;;;14.50;99.90;;;;;;5111421;28;20601;-79
2021/11/13 12:17:27;;;;;;;3.17;1.20;;;14.10;99.90;;;;;;5110853;28;20228;-79
2021/11/13 12:20:30;;;;;;;4.93;1.30;;;13.70;99.90;;;;;;5110833;28;20292;-79
2021/11/13 12:23:02;;;;;;;5.37;1.37;;;13.70;99.90;;;;;;5110910;28;20197;-80
2021/11/13 12:25:32;;;;;;;8.20;1.70;;;13.60;99.90;;;;;;5112275;27;20246;-80
2021/11/13 12:28:17;;;;;;;4.77;1.30;;;13.50;99.90;;;;;;5110773;28;20257;-79
2021/11/13 12:30:54;;;;;;;5.40;1.50;;;13.40;99.90;;;;;;5110935;28;20292;-79
2021/11/13 12:34:16;;;;;;;6.30;1.40;;;13.40;99.90;;;;;;5109906;28;20296;-79
2021/11/13 12:36:57;;;;;;;5.33;1.60;;;13.70;99.90;;;;;;5110509;28;20278;-79
2021/11/13 12:39:25;;;;;;;5.47;1.33;;;13.80;99.90;;;;;;5122565;28;20290;-80
2021/11/13 12:41:58;;;;;;;6.67;1.50;;;14.00;99.90;;;;;;5121905;28;20281;-79
2021/11/13 12:44:48;;;;;;;6.83;1.50;;;14.00;99.90;;;;;;5110191;28;20254;-80
2021/11/13 12:47:21;;;;;;;4.60;1.37;;;14.10;99.90;;;;;;5106356;28;20197;-80
2021/11/13 12:49:57;;;;;;;3.27;1.30;;;14.10;99.90;;;;;;5104231;28;20201;-80
2021/11/13 12:52:34;;;;;;;3.57;1.40;;;14.10;99.90;;;;;;5114808;27;20201;-79